Time;durP1;ratioP1;P1;durP2;ratioP2;P2;SDS_P1;SDS_P2;PMS_P1;PMS_P2;Temp;Humidity;BMP_temperature;BMP_pressure;BME280_temperature;BME280_humidity;BME280_pressure;Samples;Min_cycle;Max_cycle;Signal;HPM_P1;HPM_P2
2022/04/03 00:02:24;;;;;;;2.53;0.77;;;;;;;13.71;58.11;97959.97;5077252;28;20181;-89
2022/04/03 00:04:50;;;;;;;2.40;1.13;;;;;;;13.78;57.62;97961.13;5095304;28;20187;-88
2022/04/03 00:07:15;;;;;;;2.87;1.20;;;;;;;13.81;57.75;97947.69;5077388;28;20214;-89
2022/04/03 00:09:41;;;;;;;1.23;0.70;;;;;;;13.83;57.33;97950.19;5077936;28;20181;-89
2022/04/03 00:12:06;;;;;;;6.73;1.10;;;;;;;13.73;58.27;97947.50;5076934;28;20215;-88
2022/04/03 00:14:32;;;;;;;2.03;0.80;;;;;;;13.70;58.13;97952.19;5077783;28;20183;-89
2022/04/03 00:16:57;;;;;;;1.33;0.77;;;;;;;13.64;58.92;97958.81;5077740;28;20563;-89
2022/04/03 00:19:23;;;;;;;6.20;1.33;;;;;;;13.61;58.83;97961.69;5076891;28;20635;-89
2022/04/03 00:21:49;;;;;;;3.07;1.33;;;;;;;13.59;59.26;97971.53;5077112;28;20180;-89
2022/04/03 00:24:15;;;;;;;3.50;1.00;;;;;;;13.52;59.53;97954.59;5094829;28;20191;-89
2022/04/03 00:26:41;;;;;;;0.73;0.50;;;;;;;13.48;59.38;97958.41;5076676;28;20176;-89
2022/04/03 00:29:07;;;;;;;1.93;0.90;;;;;;;13.55;59.49;97964.81;5094500;28;20225;-89
2022/04/03 00:31:32;;;;;;;3.13;0.77;;;;;;;13.69;59.04;97961.88;5076570;28;20184;-89
2022/04/03 00:33:57;;;;;;;1.07;0.50;;;;;;;13.72;58.28;97964.28;5076597;28;20183;-89
2022/04/03 00:36:23;;;;;;;1.13;0.83;;;;;;;13.70;58.26;97962.72;5076460;28;20262;-90
2022/04/03 00:38:49;;;;;;;1.93;0.73;;;;;;;13.68;58.56;97967.31;5076490;28;20195;-89
2022/04/03 00:41:14;;;;;;;1.37;0.40;;;;;;;13.70;58.41;97971.47;5075679;28;20265;-90
2022/04/03 00:43:40;;;;;;;2.17;0.73;;;;;;;13.65;58.20;97972.81;5076661;28;20187;-90
2022/04/03 00:46:08;;;;;;;1.13;0.60;;;;;;;13.57;58.82;97965.56;5076240;28;20176;-89
2022/04/03 00:48:34;;;;;;;0.70;0.57;;;;;;;13.56;59.13;97969.16;5094392;28;20670;-89
2022/04/03 00:50:59;;;;;;;2.60;0.80;;;;;;;13.58;58.79;97959.31;5076324;28;20279;-89
2022/04/03 00:53:25;;;;;;;2.90;0.70;;;;;;;13.65;58.99;97971.03;5094596;28;20271;-88
2022/04/03 00:55:51;;;;;;;2.03;0.70;;;;;;;13.69;58.60;97977.69;5076086;28;20277;-89
2022/04/03 00:58:17;;;;;;;1.77;0.73;;;;;;;13.64;59.42;97984.31;5094282;28;20181;-89
2022/04/03 01:00:42;;;;;;;2.00;0.73;;;;;;;13.64;59.08;97982.50;5094166;28;20508;-89
2022/04/03 01:03:08;;;;;;;2.37;0.70;;;;;;;13.65;58.84;97988.63;5075978;28;20194;-89
2022/04/03 01:05:33;;;;;;;1.47;0.73;;;;;;;13.64;58.37;97979.03;5075969;28;20176;-89
2022/04/03 01:08:00;;;;;;;0.70;0.30;;;;;;;13.63;58.93;97977.34;5076534;28;20186;-90
2022/04/03 01:10:25;;;;;;;1.17;0.50;;;;;;;13.49;59.41;97970.63;5076215;28;20194;-90
2022/04/03 01:12:51;;;;;;;0.23;0.20;;;;;;;13.40;59.18;97977.47;5076127;28;20195;-90
2022/04/03 01:15:18;;;;;;;7.83;0.70;;;;;;;13.44;59.29;97975.44;5076049;28;20692;-90
2022/04/03 01:17:43;;;;;;;2.17;0.90;;;;;;;13.49;59.49;97981.97;5075842;28;20172;-89
2022/04/03 01:20:10;;;;;;;1.07;0.53;;;;;;;13.52;59.52;97986.16;5076849;28;20249;-89
2022/04/03 01:22:36;;;;;;;1.90;0.50;;;;;;;13.65;58.99;97985.97;5076591;28;20605;-90
2022/04/03 01:25:03;;;;;;;0.97;0.40;;;;;;;13.68;58.19;97983.91;5093509;28;20627;-90
2022/04/03 01:27:28;;;;;;;1.03;0.50;;;;;;;13.60;58.53;97975.81;5093734;28;20176;-89
2022/04/03 01:29:54;;;;;;;1.43;0.80;;;;;;;13.56;59.30;97971.78;5093786;28;20185;-90
2022/04/03 01:32:20;;;;;;;2.27;0.87;;;;;;;13.46;59.73;97968.25;5093462;28;20545;-89
2022/04/03 01:34:46;;;;;;;1.30;0.40;;;;;;;13.52;59.64;97970.38;5075840;28;20179;-90
2022/04/03 01:37:12;;;;;;;0.53;0.40;;;;;;;13.51;59.57;97973.97;5075452;28;20206;-89
2022/04/03 01:39:37;;;;;;;1.47;0.50;;;;;;;13.56;59.53;97974.41;5075491;28;20198;-90
2022/04/03 01:42:03;;;;;;;1.13;0.50;;;;;;;13.51;59.31;97968.69;5075436;28;20239;-90
2022/04/03 01:44:29;;;;;;;1.23;0.63;;;;;;;13.61;59.53;97947.69;5075796;28;20180;-90
2022/04/03 01:46:55;;;;;;;0.43;0.40;;;;;;;13.68;58.91;97933.88;5075639;28;20539;-89
2022/04/03 01:49:20;;;;;;;0.30;0.23;;;;;;;13.50;59.59;97919.63;5076470;28;20182;-90
2022/04/03 01:51:46;;;;;;;0.73;0.40;;;;;;;13.36;59.61;97915.50;5093655;28;20188;-89
2022/04/03 01:54:11;;;;;;;1.43;0.40;;;;;;;13.39;60.21;97911.81;5075303;28;20649;-90
2022/04/03 01:56:37;;;;;;;2.87;0.60;;;;;;;13.46;59.92;97907.69;5075176;28;20208;-90
2022/04/03 01:59:03;;;;;;;0.83;0.57;;;;;;;13.50;59.46;97893.31;5093421;28;20530;-89
2022/04/03 02:01:33;;;;;;;0.60;0.30;;;;;;;13.52;59.40;97897.47;5093064;28;20316;-89
2022/04/03 02:04:00;;;;;;;1.67;0.53;;;;;;;13.46;59.56;97900.66;5075590;28;20179;-89
2022/04/03 02:06:26;;;;;;;1.33;0.43;;;;;;;13.26;60.12;97890.13;5093613;28;20186;-90
2022/04/03 02:08:51;;;;;;;0.77;0.50;;;;;;;13.27;59.72;97894.41;5075124;28;20585;-90
2022/04/03 02:11:26;;;;;;;0.50;0.40;;;;;;;13.30;59.70;97902.88;5075285;28;20187;-90
2022/04/03 02:13:51;;;;;;;0.87;0.60;;;;;;;13.22;59.80;97907.94;5092855;28;20253;-90
2022/04/03 02:16:18;;;;;;;2.93;0.53;;;;;;;13.19;59.79;97899.44;5093154;28;20204;-90
2022/04/03 02:18:44;;;;;;;0.47;0.40;;;;;;;12.97;60.39;97889.81;5092900;28;20170;-90
2022/04/03 02:21:09;;;;;;;0.97;0.40;;;;;;;12.97;60.69;97896.91;5075160;28;20183;-90
2022/04/03 02:23:34;;;;;;;1.00;0.50;;;;;;;12.95;60.79;97900.47;5092861;28;20245;-90
2022/04/03 02:26:00;;;;;;;0.80;0.50;;;;;;;13.01;60.36;97900.94;5092860;28;20180;-89
2022/04/03 02:28:26;;;;;;;0.50;0.33;;;;;;;12.98;59.76;97909.06;5092858;28;20179;-90
2022/04/03 02:30:51;;;;;;;1.73;0.53;;;;;;;12.78;59.92;97900.19;5075255;28;20241;-89
2022/04/03 02:33:17;;;;;;;1.97;0.70;;;;;;;12.66;60.92;97901.16;5074990;28;20179;-90
2022/04/03 02:35:42;;;;;;;1.70;0.70;;;;;;;12.68;61.06;97902.72;5092975;28;20203;-89
2022/04/03 02:38:08;;;;;;;0.83;0.50;;;;;;;12.60;61.01;97901.69;5075353;28;20190;-89
2022/04/03 02:40:34;;;;;;;2.37;0.93;;;;;;;12.34;61.65;97907.19;5075484;28;20615;-89
2022/04/03 02:43:00;;;;;;;1.20;0.53;;;;;;;12.27;62.35;97899.94;5092991;28;20178;-89
2022/04/03 02:45:25;;;;;;;2.40;1.07;;;;;;;12.39;61.88;97914.75;5074837;28;20179;-88
2022/04/03 02:47:53;;;;;;;1.73;0.60;;;;;;;12.45;61.70;97926.56;5075097;28;20187;-88
2022/04/03 02:50:20;;;;;;;0.40;0.30;;;;;;;12.16;62.16;97934.91;5075132;28;20625;-88
2022/04/03 02:52:48;;;;;;;0.63;0.43;;;;;;;11.82;63.54;97941.09;5074776;28;20181;-88
2022/04/03 02:55:13;;;;;;;2.43;0.80;;;;;;;11.92;63.55;97931.59;5074627;28;20637;-88
2022/04/03 02:57:39;;;;;;;2.70;0.97;;;;;;;12.00;63.96;97931.00;5092541;28;20177;-88
2022/04/03 03:00:06;;;;;;;0.60;0.40;;;;;;;12.02;63.40;97929.06;5074651;28;20193;-88
2022/04/03 03:02:32;;;;;;;2.33;0.60;;;;;;;12.08;63.12;97936.50;5075050;28;20178;-88
2022/04/03 03:04:57;;;;;;;2.93;1.20;;;;;;;12.18;63.01;97942.69;5077727;28;20540;-88
2022/04/03 03:07:23;;;;;;;1.63;0.90;;;;;;;12.05;63.26;97941.97;5078284;28;20276;-88
2022/04/03 03:09:49;;;;;;;0.97;0.60;;;;;;;12.08;63.34;97947.00;5078258;28;20189;-88
2022/04/03 03:12:15;;;;;;;0.70;0.47;;;;;;;12.12;63.60;97937.91;5077937;28;20228;-88
2022/04/03 03:14:41;;;;;;;0.83;0.50;;;;;;;12.16;63.25;97944.59;5096242;28;20178;-88
2022/04/03 03:17:06;;;;;;;1.40;0.50;;;;;;;12.21;63.29;97937.22;5096193;28;20202;-88
2022/04/03 03:19:32;;;;;;;1.23;0.43;;;;;;;12.21;63.72;97940.66;5078018;28;20185;-88
2022/04/03 03:21:58;;;;;;;1.10;0.87;;;;;;;12.20;63.78;97951.28;5095846;28;20188;-88
2022/04/03 03:24:23;;;;;;;1.70;0.70;;;;;;;12.19;63.37;97937.31;5077952;28;20173;-88
2022/04/03 03:26:49;;;;;;;0.83;0.40;;;;;;;12.09;63.98;97940.78;5096049;28;20253;-89
2022/04/03 03:29:15;;;;;;;0.70;0.43;;;;;;;12.21;63.15;97942.47;5096056;28;20192;-88
2022/04/03 03:31:40;;;;;;;0.30;0.27;;;;;;;12.21;62.85;97945.09;5077836;28;20209;-89
2022/04/03 03:34:06;;;;;;;6.23;0.93;;;;;;;12.17;63.03;97941.84;5077759;28;20194;-89
2022/04/03 03:36:31;;;;;;;0.90;0.60;;;;;;;12.28;62.87;97935.75;5077623;28;20267;-89
2022/04/03 03:38:57;;;;;;;1.10;0.60;;;;;;;12.38;62.41;97939.34;5077907;28;20641;-89
2022/04/03 03:41:22;;;;;;;16.80;1.67;;;;;;;12.45;61.54;97940.50;5078780;28;20185;-89
2022/04/03 03:43:48;;;;;;;1.80;1.00;;;;;;;12.21;61.88;97927.50;5077907;28;20537;-89
2022/04/03 03:46:14;;;;;;;0.67;0.47;;;;;;;12.07;62.77;97934.81;5095664;28;20175;-89
2022/04/03 03:48:40;;;;;;;1.33;0.70;;;;;;;12.08;62.99;97939.94;5077840;28;20177;-89
2022/04/03 03:51:06;;;;;;;1.23;0.60;;;;;;;12.08;62.49;97944.38;5077433;28;20256;-89
2022/04/03 03:53:32;;;;;;;1.27;0.53;;;;;;;12.01;62.23;97937.91;5077740;28;20181;-89
2022/04/03 03:55:58;;;;;;;1.70;1.00;;;;;;;11.90;62.89;97940.50;5077594;28;20206;-89
2022/04/03 03:58:23;;;;;;;1.90;0.90;;;;;;;11.90;63.35;97933.47;5077245;28;20181;-89
2022/04/03 04:00:50;;;;;;;1.47;0.87;;;;;;;11.97;62.74;97942.56;5077615;28;20207;-89
2022/04/03 04:03:17;;;;;;;2.83;0.87;;;;;;;11.97;62.03;97945.19;5087866;28;20185;-89
2022/04/03 04:05:42;;;;;;;4.07;1.70;;;;;;;11.78;62.88;97949.34;5069531;28;20188;-89
2022/04/03 04:08:09;;;;;;;4.23;2.37;;;;;;;11.62;63.41;97939.97;5077262;28;20177;-89
2022/04/03 04:10:36;;;;;;;13.10;5.77;;;;;;;11.58;63.76;97942.94;5074563;28;20695;-89
2022/04/03 04:13:03;;;;;;;10.33;4.50;;;;;;;11.62;64.15;97950.47;5056650;28;20254;-88
2022/04/03 04:15:30;;;;;;;8.87;4.27;;;;;;;11.66;63.99;97946.66;5073368;28;20184;-89
2022/04/03 04:17:58;;;;;;;7.13;3.83;;;;;;;11.74;63.77;97958.41;5058980;28;20541;-89
2022/04/03 04:20:27;;;;;;;5.13;3.30;;;;;;;11.84;62.98;97954.97;5066001;28;20197;-89
2022/04/03 04:22:53;;;;;;;5.77;2.90;;;;;;;11.71;63.63;97960.28;5081128;28;20190;-88
2022/04/03 04:25:20;;;;;;;9.60;2.90;;;;;;;11.68;64.00;97954.41;5076773;28;20180;-88
2022/04/03 04:27:47;;;;;;;5.60;2.30;;;;;;;11.65;64.33;97954.66;5094767;28;20237;-88
2022/04/03 04:30:15;;;;;;;4.27;1.70;;;;;;;11.83;64.16;97958.53;5095045;28;20689;-88
2022/04/03 04:32:43;;;;;;;1.23;0.77;;;;;;;11.72;65.29;97955.88;5077092;28;20628;-88
2022/04/03 04:35:10;;;;;;;0.73;0.50;;;;;;;11.54;66.32;97952.84;5076801;28;20535;-88
2022/04/03 04:37:37;;;;;;;3.43;0.97;;;;;;;11.70;66.26;97969.13;5094258;28;20211;-88
2022/04/03 04:40:05;;;;;;;4.00;1.73;;;;;;;11.91;66.16;97969.28;5077284;28;20558;-88
2022/04/03 04:42:32;;;;;;;2.17;1.17;;;;;;;12.04;65.81;97980.53;5094804;28;20268;-89
2022/04/03 04:44:59;;;;;;;3.50;1.90;;;;;;;12.14;65.20;97983.28;5087278;28;20760;-88
2022/04/03 04:47:26;;;;;;;3.97;1.37;;;;;;;12.24;64.97;97977.19;5094468;28;20180;-88
2022/04/03 04:49:53;;;;;;;4.00;1.70;;;;;;;12.34;65.15;97980.78;5094397;28;20178;-88
2022/04/03 04:52:20;;;;;;;2.20;1.27;;;;;;;12.36;65.13;97987.72;5094101;28;20178;-89
2022/04/03 04:54:46;;;;;;;3.07;1.60;;;;;;;12.45;64.77;97989.63;5094563;28;20286;-89
2022/04/03 04:57:13;;;;;;;5.40;1.43;;;;;;;12.53;64.49;97987.22;5094185;28;20194;-90
2022/04/03 04:59:40;;;;;;;2.83;1.57;;;;;;;12.53;64.42;97988.06;5093929;28;20262;-90
2022/04/03 05:02:07;;;;;;;2.23;1.03;;;;;;;12.59;64.21;97977.06;5093855;28;20188;-89
2022/04/03 05:04:34;;;;;;;5.80;1.70;;;;;;;12.58;64.26;97983.25;5093901;28;20213;-89
2022/04/03 05:07:01;;;;;;;3.67;1.90;;;;;;;12.67;64.31;97986.97;5094394;28;20166;-89
2022/04/03 05:09:28;;;;;;;5.67;2.57;;;;;;;12.73;63.62;97994.38;5094057;28;20243;-88
2022/04/03 05:11:54;;;;;;;6.33;2.53;;;;;;;12.66;63.92;97996.63;5075968;28;20185;-89
2022/04/03 05:14:21;;;;;;;3.80;2.00;;;;;;;12.64;63.41;97995.94;5094287;28;20256;-90
2022/04/03 05:16:47;;;;;;;3.93;1.60;;;;;;;12.60;63.38;97996.31;5093616;28;20194;-89
2022/04/03 05:19:17;;;;;;;2.80;1.33;;;;;;;12.68;63.61;98005.25;5075900;28;20190;-91
2022/04/03 05:21:42;;;;;;;3.57;1.90;;;;;;;12.71;63.43;98014.72;5076314;28;20531;-88
2022/04/03 05:24:08;;;;;;;3.73;1.37;;;;;;;12.73;63.69;98016.25;5093540;28;20178;-88
2022/04/03 05:26:34;;;;;;;7.30;0.90;;;;;;;12.78;63.14;98021.13;5093242;28;20183;-87
2022/04/03 05:29:01;;;;;;;1.83;1.00;;;;;;;12.81;63.15;98019.09;5093498;28;20181;-87
2022/04/03 05:31:28;;;;;;;2.77;1.00;;;;;;;12.82;63.29;98026.03;5071493;28;20203;-88
2022/04/03 05:33:55;;;;;;;2.37;1.10;;;;;;;12.84;63.48;98023.28;5073721;28;20624;-88
2022/04/03 05:36:22;;;;;;;2.23;1.10;;;;;;;12.92;62.85;98018.22;5073069;28;20206;-89
2022/04/03 05:38:49;;;;;;;1.30;0.67;;;;;;;12.92;62.82;98012.97;5073633;28;20262;-89
2022/04/03 05:41:15;;;;;;;1.03;0.67;;;;;;;12.99;62.41;98014.19;5055413;28;20540;-89
2022/04/03 05:43:40;;;;;;;0.83;0.50;;;;;;;13.00;62.57;98025.53;5073060;28;20168;-89
2022/04/03 05:46:07;;;;;;;1.30;0.77;;;;;;;13.06;62.19;98030.28;5055328;28;20630;-89
2022/04/03 05:48:33;;;;;;;2.67;0.60;;;;;;;13.00;62.27;98046.59;5073274;28;20171;-89
2022/04/03 05:51:00;;;;;;;1.83;0.77;;;;;;;12.91;62.50;98058.66;5074634;28;20181;-89
2022/04/03 05:53:28;;;;;;;2.13;0.80;;;;;;;12.87;63.10;98057.22;5072270;28;20684;-89
2022/04/03 05:55:55;;;;;;;1.67;0.90;;;;;;;12.90;62.68;98062.22;5093028;28;20278;-89
2022/04/03 05:58:23;;;;;;;0.87;0.53;;;;;;;12.74;63.16;98057.34;5075312;28;20540;-89
2022/04/03 06:01:23;;;;;;;0.80;0.53;;;;;;;12.54;63.23;98059.84;5093425;28;20255;-92
2022/04/03 06:03:53;;;;;;;4.37;1.27;;;;;;;12.41;63.93;98051.25;5091296;28;20185;-93
2022/04/03 06:06:30;;;;;;;;;;;;;;;;;;;;;
2022/04/03 06:08:56;;;;;;;34.37;13.07;;;;;;;12.59;63.41;98042.78;5093671;28;20152;-90
2022/04/03 06:12:19;;;;;;;4.57;2.20;;;;;;;12.78;62.54;98048.28;5092988;28;20255;-91
2022/04/03 06:18:43;;;;;;;4.63;2.00;;;;;;;13.30;61.84;98049.41;5056252;28;20205;-93
2022/04/03 06:32:49;;;;;;;13.43;6.37;;;;;;;14.74;55.54;98078.47;4820286;29;20189;-92
2022/04/03 06:39:26;;;;;;;2.90;1.03;;;;;;;15.10;51.26;98085.00;4842111;29;20201;-94
2022/04/03 06:45:26;;;;;;;3.80;1.73;;;;;;;15.27;49.78;98091.44;4736970;29;20606;-95
2022/04/03 06:51:39;;;;;;;9.57;2.13;;;;;;;15.48;48.92;98096.66;4771902;30;20202;-92
2022/04/03 06:54:45;;;;;;;;;;;;;;;;;;;;;
2022/04/03 06:57:15;;;;;;;2.23;0.77;;;;;;;15.78;44.59;98091.25;4835331;29;20689;-92
2022/04/03 06:59:42;;;;;;;1.83;0.70;;;;;;;16.11;44.95;98105.88;4825394;29;20258;-92
2022/04/03 07:02:10;;;;;;;1.37;0.80;;;;;;;16.61;44.11;98098.59;4894017;29;20207;-92
2022/04/03 07:04:36;;;;;;;11.47;2.10;;;;;;;16.98;42.20;98104.75;4957045;29;20172;-92
2022/04/03 07:07:03;;;;;;;1.40;0.80;;;;;;;17.03;39.71;98119.19;4956582;29;20255;-92
2022/04/03 07:09:38;;;;;;;3.03;0.80;;;;;;;17.00;40.21;98126.59;5036348;28;20640;-91
2022/04/03 07:12:06;;;;;;;0.80;0.40;;;;;;;16.95;40.34;98112.97;5058988;28;20515;-92
2022/04/03 07:14:33;;;;;;;2.37;1.00;;;;;;;16.72;41.02;98117.75;5074223;28;20216;-93
2022/04/03 07:16:59;;;;;;;0.47;0.40;;;;;;;17.00;39.97;98116.03;5058090;28;20204;-89
2022/04/03 07:19:26;;;;;;;0.80;0.40;;;;;;;17.28;39.88;98128.28;5058046;28;20179;-89
2022/04/03 07:21:53;;;;;;;0.93;0.23;;;;;;;17.23;40.22;98135.00;5075873;28;20173;-89
2022/04/03 07:24:29;;;;;;;0.37;0.20;;;;;;;17.27;37.61;98139.84;5057890;28;20176;-90
2022/04/03 07:26:58;;;;;;;1.07;0.20;;;;;;;16.85;38.51;98141.28;5076215;28;20157;-90
2022/04/03 07:29:25;;;;;;;0.63;0.30;;;;;;;16.91;38.57;98148.63;5076752;28;20173;-91
2022/04/03 07:31:58;;;;;;;2.10;0.57;;;;;;;17.10;38.03;98143.28;5076009;28;20186;-89
2022/04/03 07:34:25;;;;;;;1.37;0.33;;;;;;;16.73;37.91;98153.00;5075635;28;20289;-92
2022/04/03 07:36:52;;;;;;;0.50;0.40;;;;;;;16.67;38.68;98153.56;5075375;28;20704;-90
2022/04/03 07:39:19;;;;;;;0.37;0.20;;;;;;;16.64;39.84;98156.53;5075245;28;20231;-90
2022/04/03 07:41:46;;;;;;;2.97;1.00;;;;;;;16.88;39.15;98151.56;5075424;28;20228;-89
2022/04/03 07:44:12;;;;;;;5.23;0.57;;;;;;;17.02;39.95;98151.13;5088799;28;20173;-89
2022/04/03 07:46:40;;;;;;;4.27;0.50;;;;;;;17.27;39.34;98152.28;5075824;28;20255;-89
2022/04/03 07:49:07;;;;;;;1.20;0.40;;;;;;;17.30;38.68;98173.16;5075397;28;20306;-90
2022/04/03 07:51:34;;;;;;;2.03;1.00;;;;;;;17.45;39.82;98158.47;5075056;28;20174;-90
2022/04/03 07:54:00;;;;;;;0.50;0.27;;;;;;;17.79;37.77;98173.63;5076134;28;20172;-89
2022/04/03 07:56:27;;;;;;;1.47;0.50;;;;;;;17.90;37.60;98166.47;5087165;28;20214;-88
2022/04/03 07:58:54;;;;;;;1.83;0.90;;;;;;;18.18;38.82;98154.81;5085280;28;20212;-92
2022/04/03 08:01:21;;;;;;;3.27;0.83;;;;;;;17.89;36.65;98164.78;5075100;28;20267;-91
2022/04/03 08:03:47;;;;;;;3.53;1.60;;;;;;;17.70;36.93;98171.88;5057022;28;20532;-90
2022/04/03 08:06:14;;;;;;;1.60;0.57;;;;;;;17.66;37.55;98173.16;5074849;28;20174;-90
2022/04/03 08:08:44;;;;;;;1.80;0.30;;;;;;;18.00;37.90;98167.22;5077181;28;20748;-91
2022/04/03 08:11:10;;;;;;;0.57;0.37;;;;;;;17.95;37.34;98177.47;5093702;28;20165;-91
2022/04/03 08:13:35;;;;;;;0.90;0.60;;;;;;;18.17;37.49;98179.66;5076073;28;20686;-90
2022/04/03 08:16:01;;;;;;;1.70;0.60;;;;;;;18.38;36.44;98174.88;5093317;28;20193;-90
2022/04/03 08:18:27;;;;;;;1.97;0.70;;;;;;;18.15;38.70;98171.03;5093645;28;20249;-90
2022/04/03 08:20:56;;;;;;;0.83;0.43;;;;;;;17.99;37.49;98179.66;5075076;28;20211;-90
2022/04/03 08:23:21;;;;;;;1.67;0.30;;;;;;;17.96;38.26;98187.06;5092815;28;20171;-91
2022/04/03 08:25:48;;;;;;;0.73;0.33;;;;;;;17.99;39.59;98186.75;5092634;28;20527;-90
2022/04/03 08:28:16;;;;;;;3.37;1.30;;;;;;;17.88;39.27;98192.28;5092598;28;20192;-90
2022/04/03 08:30:42;;;;;;;3.30;1.30;;;;;;;18.24;38.58;98186.84;5092931;28;20165;-91
2022/04/03 08:33:09;;;;;;;0.63;0.37;;;;;;;18.38;38.06;98172.22;5092867;28;20183;-90
2022/04/03 08:35:40;;;;;;;1.20;0.63;;;;;;;18.19;37.01;98183.81;5094246;28;20591;-91
2022/04/03 08:38:06;;;;;;;2.40;0.40;;;;;;;18.21;37.89;98181.84;5094662;28;20152;-90
2022/04/03 08:40:33;;;;;;;1.57;0.40;;;;;;;18.60;37.40;98177.09;5094586;28;20168;-89
2022/04/03 08:42:58;;;;;;;0.77;0.50;;;;;;;18.52;36.18;98181.50;5094289;28;20166;-92
2022/04/03 08:45:24;;;;;;;0.10;0.10;;;;;;;18.14;35.86;98178.13;5094176;28;20169;-89
2022/04/03 08:47:52;;;;;;;1.07;0.30;;;;;;;18.24;37.68;98167.44;5094117;28;20172;-89
2022/04/03 08:50:23;;;;;;;0.80;0.40;;;;;;;18.32;37.89;98178.97;5076266;28;20176;-88
2022/04/03 08:52:51;;;;;;;1.03;0.40;;;;;;;18.61;36.66;98178.75;5094115;28;20215;-91
2022/04/03 08:55:18;;;;;;;0.67;0.40;;;;;;;18.43;36.58;98185.88;5094041;28;20177;-93
2022/04/03 08:57:44;;;;;;;0.10;0.10;;;;;;;18.26;36.08;98184.06;5093941;28;20188;-90
2022/04/03 09:00:13;;;;;;;0.67;0.30;;;;;;;18.12;35.30;98188.06;5094222;28;20184;-92
2022/04/03 09:02:39;;;;;;;1.03;0.33;;;;;;;18.24;36.58;98188.66;5093338;28;20170;-90
2022/04/03 09:05:05;;;;;;;0.50;0.30;;;;;;;18.36;36.68;98193.63;5093983;28;20168;-91
2022/04/03 09:07:30;;;;;;;1.50;0.47;;;;;;;18.19;36.66;98201.53;5094120;28;20651;-91
2022/04/03 09:10:17;;;;;;;0.70;0.20;;;;;;;18.35;35.97;98191.09;5094362;28;20172;-91
2022/04/03 09:12:50;;;;;;;0.50;0.30;;;;;;;17.88;35.39;98206.38;5075665;28;20573;-87
2022/04/03 09:15:21;;;;;;;0.40;0.20;;;;;;;17.79;36.50;98201.97;5093640;28;20549;-90
2022/04/03 09:17:52;;;;;;;0.20;0.20;;;;;;;17.54;36.56;98208.78;5093510;28;20188;-90
2022/04/03 09:20:20;;;;;;;0.67;0.30;;;;;;;17.73;36.98;98215.81;5075822;28;20172;-92
2022/04/03 09:22:50;;;;;;;0.93;0.43;;;;;;;17.95;34.79;98201.31;5093872;28;20180;-90
2022/04/03 09:25:22;;;;;;;0.77;0.30;;;;;;;18.23;34.00;98189.66;5093536;28;20173;-89
2022/04/03 09:27:54;;;;;;;9.57;2.90;;;;;;;18.58;33.65;98194.97;5093636;28;20216;-88
2022/04/03 09:30:22;;;;;;;0.80;0.30;;;;;;;18.83;32.68;98199.50;5093869;28;20156;-91
2022/04/03 09:32:54;;;;;;;0.60;0.40;;;;;;;18.73;32.42;98211.19;5093522;28;20196;-88
2022/04/03 09:35:24;;;;;;;0.30;0.13;;;;;;;18.29;33.25;98205.00;5075607;28;20172;-89
2022/04/03 09:38:10;;;;;;;0.83;0.17;;;;;;;18.08;32.71;98215.84;5093251;28;20206;-91
2022/04/03 09:40:44;;;;;;;0.43;0.30;;;;;;;17.90;32.64;98208.88;5075461;28;20190;-89
2022/04/03 09:43:21;;;;;;;1.20;0.40;;;;;;;17.57;33.95;98226.19;5093564;28;20225;-89
2022/04/03 09:46:06;;;;;;;2.63;0.70;;;;;;;17.01;34.40;98226.22;5093761;28;20159;-88
2022/04/03 09:48:38;;;;;;;0.50;0.40;;;;;;;17.16;35.37;98225.63;5093520;28;20246;-90
2022/04/03 09:51:11;;;;;;;0.27;0.20;;;;;;;17.19;34.94;98224.50;5093456;28;20157;-89
2022/04/03 09:53:50;;;;;;;0.10;0.10;;;;;;;17.27;34.27;98219.31;5093580;28;20240;-90
2022/04/03 09:56:24;;;;;;;0.47;0.27;;;;;;;17.62;33.44;98221.28;5093296;28;20250;-90
2022/04/03 09:58:50;;;;;;;0.27;0.10;;;;;;;17.67;33.04;98224.34;5093115;28;20168;-91
2022/04/03 10:01:27;;;;;;;0.10;0.10;;;;;;;17.94;33.13;98210.25;5093626;28;20388;-86
2022/04/03 10:03:53;;;;;;;0.03;0.03;;;;;;;18.30;33.37;98225.22;5075255;28;20632;-91
2022/04/03 10:06:19;;;;;;;0.60;0.17;;;;;;;17.75;33.77;98216.50;5093502;28;20249;-89
2022/04/03 10:08:47;;;;;;;0.40;0.30;;;;;;;17.87;34.40;98217.13;5092975;28;20255;-88
2022/04/03 10:11:13;;;;;;;0.57;0.27;;;;;;;18.23;33.40;98218.84;5092938;28;20272;-90
2022/04/03 10:13:39;;;;;;;0.43;0.20;;;;;;;18.67;33.59;98214.47;5094197;28;20196;-91
2022/04/03 10:16:04;;;;;;;0.40;0.30;;;;;;;18.93;32.21;98210.84;5079587;28;20274;-91
2022/04/03 10:18:30;;;;;;;0.30;0.20;;;;;;;19.00;33.18;98211.91;5097248;28;20236;-88
2022/04/03 10:20:56;;;;;;;4.53;0.17;;;;;;;18.95;32.62;98214.19;5097018;28;20657;-91
2022/04/03 10:23:25;;;;;;;0.20;0.20;;;;;;;19.19;32.03;98210.00;5097255;28;20191;-92
2022/04/03 10:25:53;;;;;;;0.30;0.20;;;;;;;19.31;31.63;98219.41;5097257;28;20225;-89
2022/04/03 10:28:20;;;;;;;0.93;0.30;;;;;;;19.41;31.17;98225.47;5096946;28;20200;-90
2022/04/03 10:30:58;;;;;;;0.27;0.10;;;;;;;19.27;31.09;98229.50;5097451;28;20198;-92
2022/04/03 10:33:24;;;;;;;0.40;0.10;;;;;;;19.41;32.10;98236.09;5096902;28;20160;-88
2022/04/03 10:36:08;;;;;;;0.23;0.17;;;;;;;19.54;31.75;98233.84;5096807;28;22044;-91
2022/04/03 10:38:38;;;;;;;2.33;0.20;;;;;;;19.61;31.71;98243.69;5096782;28;20161;-90
2022/04/03 10:41:05;;;;;;;0.83;0.20;;;;;;;19.55;30.21;98241.66;5096764;28;20188;-89
2022/04/03 10:43:38;;;;;;;0.70;0.30;;;;;;;20.00;32.24;98230.69;5078763;28;20514;-88
2022/04/03 10:46:04;;;;;;;0.30;0.20;;;;;;;20.28;31.10;98227.81;5096634;28;20219;-90
2022/04/03 10:48:31;;;;;;;0.77;0.10;;;;;;;19.97;30.40;98224.84;5078690;28;20188;-90
2022/04/03 10:51:05;;;;;;;0.60;0.23;;;;;;;20.20;31.11;98216.09;5096942;28;20247;-87
2022/04/03 10:53:38;;;;;;;0.33;0.20;;;;;;;20.50;30.90;98219.19;5097131;28;20156;-89
2022/04/03 10:56:23;;;;;;;1.40;0.40;;;;;;;20.81;30.46;98222.84;5078769;28;20200;-91
2022/04/03 10:59:31;;;;;;;;;;;;;;;;;;;;;
2022/04/03 11:02:14;;;;;;;0.20;0.13;;;;;;;21.37;29.11;98219.31;5096332;28;20524;-95
2022/04/03 11:04:39;;;;;;;2.20;0.60;;;;;;;21.12;30.35;98209.72;5096835;28;20160;-90
2022/04/03 11:07:17;;;;;;;1.47;0.50;;;;;;;20.68;28.41;98226.03;5078409;28;20246;-90
2022/04/03 11:09:47;;;;;;;1.17;0.40;;;;;;;20.71;28.30;98225.69;5078280;28;20587;-89
2022/04/03 11:12:13;;;;;;;1.60;0.40;;;;;;;20.58;27.34;98222.69;5096151;28;20634;-90
2022/04/03 11:14:57;;;;;;;0.93;0.13;;;;;;;20.73;25.84;98217.53;5096090;28;20193;-90
2022/04/03 11:17:46;;;;;;;0.43;0.17;;;;;;;20.69;27.12;98226.84;5096265;28;20275;-91
2022/04/03 11:20:31;;;;;;;0.20;0.10;;;;;;;20.47;27.19;98231.00;5096758;28;20220;-88
2022/04/03 11:22:58;;;;;;;2.17;0.27;;;;;;;20.40;27.27;98229.16;5096194;28;20176;-88
2022/04/03 11:25:24;;;;;;;0.20;0.10;;;;;;;20.73;27.00;98236.16;5077805;28;20700;-91
2022/04/03 11:28:19;;;;;;;0.70;0.30;;;;;;;20.66;26.31;98232.50;5078007;28;20199;-91
2022/04/03 11:30:45;;;;;;;0.97;0.30;;;;;;;20.79;27.20;98230.19;5072084;28;20201;-90
2022/04/03 11:33:12;;;;;;;0.87;0.23;;;;;;;20.84;27.85;98227.84;5089824;28;20181;-90
2022/04/03 11:35:40;;;;;;;0.53;0.37;;;;;;;21.20;26.08;98233.69;5089846;28;20173;-91
2022/04/03 11:38:15;;;;;;;0.37;0.17;;;;;;;21.56;27.16;98234.09;5074538;28;20183;-91
2022/04/03 11:40:46;;;;;;;0.20;0.10;;;;;;;21.71;26.64;98230.53;5096163;28;20246;-92
2022/04/03 11:43:18;;;;;;;0.23;0.20;;;;;;;21.69;27.27;98229.91;5095564;28;20188;-90
2022/04/03 11:45:55;;;;;;;2.00;0.30;;;;;;;21.66;27.92;98224.91;5095523;28;20221;-89
2022/04/03 11:48:24;;;;;;;0.87;0.53;;;;;;;21.86;27.30;98231.50;5095490;28;20196;-91
2022/04/03 11:51:12;;;;;;;0.20;0.10;;;;;;;22.20;27.54;98225.00;5077466;28;20172;-90
2022/04/03 11:53:40;;;;;;;0.53;0.33;;;;;;;22.54;26.93;98225.44;5077452;28;20574;-90
2022/04/03 11:56:35;;;;;;;0.20;0.20;;;;;;;22.60;28.02;98230.91;5095471;28;20222;-89
2022/04/03 11:59:04;;;;;;;1.50;0.20;;;;;;;22.23;26.00;98244.16;5095542;28;20195;-89
2022/04/03 12:01:31;;;;;;;0.10;0.10;;;;;;;21.93;26.14;98237.81;5077315;28;20203;-88
2022/04/03 12:04:00;;;;;;;0.50;0.30;;;;;;;21.68;26.90;98238.06;5095336;28;20172;-88
2022/04/03 12:06:31;;;;;;;2.63;0.27;;;;;;;21.64;27.14;98239.41;5095533;28;20187;-88
2022/04/03 12:08:57;;;;;;;1.70;0.40;;;;;;;21.71;27.49;98237.72;5095786;28;20273;-89
2022/04/03 12:11:45;;;;;;;0.33;0.10;;;;;;;22.03;28.15;98225.09;5077199;28;20190;-90